createdAt,value
2022-10-14T00:03:22.589Z,15.10
2022-10-14T00:07:23.202Z,16.00
2022-10-14T00:11:27.464Z,17.43
2022-10-14T00:15:30.260Z,16.60
2022-10-14T00:19:30.421Z,15.90
2022-10-14T00:23:32.004Z,16.27
2022-10-14T00:27:32.197Z,15.63
2022-10-14T00:31:38.649Z,17.27
2022-10-14T00:35:38.795Z,17.20
2022-10-14T00:39:39.354Z,16.50
2022-10-14T00:44:06.997Z,15.00
2022-10-14T00:48:10.997Z,14.93
2022-10-14T00:52:17.868Z,17.23
2022-10-14T00:56:25.477Z,15.83
2022-10-14T01:00:26.274Z,15.83
2022-10-14T01:04:30.195Z,19.70
2022-10-14T01:08:42.850Z,19.37
2022-10-14T01:13:09.994Z,20.73
2022-10-14T01:17:21.486Z,21.17
2022-10-14T01:21:34.047Z,18.63
2022-10-14T01:25:45.551Z,17.57
2022-10-14T01:30:11.395Z,18.03
2022-10-14T01:34:20.459Z,18.20
2022-10-14T01:38:30.116Z,14.00
2022-10-14T01:42:41.002Z,14.53
2022-10-14T01:46:52.921Z,14.37
2022-10-14T01:50:57.168Z,16.23
2022-10-14T01:55:03.266Z,16.60
2022-10-14T01:59:06.103Z,17.13
2022-10-14T02:03:12.174Z,16.20
2022-10-14T02:07:22.716Z,17.27
2022-10-14T02:11:25.160Z,16.37
2022-10-14T02:15:36.336Z,16.63
2022-10-14T02:19:47.202Z,17.33
2022-10-14T02:23:56.716Z,17.37
2022-10-14T02:27:57.757Z,17.17
2022-10-14T02:31:59.646Z,16.00
2022-10-14T02:36:04.804Z,15.63
2022-10-14T02:40:14.653Z,17.50
2022-10-14T02:44:14.881Z,14.83
2022-10-14T02:48:15.869Z,17.57
2022-10-14T02:52:18.786Z,17.10
2022-10-14T02:56:20.695Z,16.93
2022-10-14T03:00:22.094Z,17.20
2022-10-14T03:04:22.661Z,17.47
2022-10-14T03:08:27.725Z,17.37
2022-10-14T03:12:30.234Z,16.40
2022-10-14T03:16:30.804Z,16.60
2022-10-14T03:20:31.969Z,16.73
2022-10-14T03:24:35.386Z,17.07
2022-10-14T03:29:05.211Z,16.83
2022-10-14T03:33:33.687Z,16.27
2022-10-14T03:37:44.918Z,15.43
2022-10-14T03:41:48.673Z,16.70
2022-10-14T03:45:52.365Z,15.50
2022-10-14T03:49:55.255Z,14.97
2022-10-14T03:54:01.104Z,15.23
2022-10-14T03:58:05.422Z,13.80
2022-10-14T04:02:05.925Z,13.07
2022-10-14T04:06:06.221Z,14.00
2022-10-14T04:10:07.920Z,15.83
2022-10-14T04:14:12.298Z,16.00
2022-10-14T04:18:19.299Z,15.27
2022-10-14T04:22:23.271Z,14.90
2022-10-14T04:26:27.443Z,13.50
2022-10-14T04:30:30.410Z,16.57
2022-10-14T04:34:32.428Z,14.40
2022-10-14T04:38:32.903Z,16.80
2022-10-14T04:42:37.953Z,16.60
2022-10-14T04:46:44.607Z,17.37
2022-10-14T04:50:45.288Z,16.53
2022-10-14T04:55:10.805Z,18.57
2022-10-14T04:59:16.427Z,18.60
2022-10-14T05:03:34.502Z,19.50
2022-10-14T05:07:34.911Z,17.73
2022-10-14T05:11:50.997Z,17.90
2022-10-14T05:15:55.820Z,17.57
2022-10-14T05:19:59.064Z,15.13
2022-10-14T05:24:00.689Z,17.73
2022-10-14T05:28:03.917Z,16.13
2022-10-14T05:32:04.181Z,15.83
2022-10-14T05:36:16.986Z,16.93
2022-10-14T05:40:17.237Z,16.83
2022-10-14T05:44:17.763Z,17.17
2022-10-14T05:48:20.485Z,16.33
2022-10-14T05:52:24.435Z,17.13
2022-10-14T05:56:26.349Z,16.37
2022-10-14T06:00:27.414Z,27.23
2022-10-14T06:04:35.261Z,25.50
2022-10-14T06:08:40.002Z,25.60
2022-10-14T06:12:40.525Z,20.67
2022-10-14T06:16:40.853Z,21.37
2022-10-14T06:20:41.364Z,22.50
2022-10-14T06:24:44.090Z,22.87
2022-10-14T06:28:44.412Z,20.97
2022-10-14T06:32:44.742Z,20.80
2022-10-14T06:36:44.874Z,20.57
2022-10-14T06:40:47.578Z,22.43
2022-10-14T06:44:47.979Z,21.67
2022-10-14T06:48:50.295Z,21.60
2022-10-14T06:52:51.283Z,21.40
2022-10-14T06:56:53.994Z,22.10
2022-10-14T07:00:54.566Z,23.13
2022-10-14T07:04:57.320Z,23.10
2022-10-14T07:08:57.477Z,20.33
2022-10-14T07:13:00.316Z,20.03
2022-10-14T07:17:00.699Z,17.80
2022-10-14T07:21:05.027Z,19.03
2022-10-14T07:25:06.628Z,19.00
2022-10-14T07:29:12.452Z,21.37
2022-10-14T07:33:12.801Z,20.43
2022-10-14T07:37:15.381Z,20.27
2022-10-14T07:41:21.018Z,18.75
2022-10-14T07:45:23.776Z,18.20
2022-10-14T07:49:25.320Z,19.77
2022-10-14T07:53:26.291Z,19.97
2022-10-14T07:57:27.762Z,19.67
2022-10-14T08:01:34.084Z,20.57
2022-10-14T08:05:39.128Z,19.90
2022-10-14T08:09:40.447Z,18.90
2022-10-14T08:13:45.243Z,19.17
2022-10-14T08:17:49.129Z,20.77
2022-10-14T08:21:49.276Z,19.08
2022-10-14T08:25:52.427Z,19.25
2022-10-14T08:29:52.543Z,18.85
2022-10-14T08:33:55.728Z,19.10
2022-10-14T08:38:00.547Z,19.85
2022-10-14T08:42:40.062Z,18.63
2022-10-14T08:46:50.974Z,18.23
2022-10-14T08:51:02.509Z,17.85
2022-10-14T08:55:07.537Z,18.00
2022-10-14T08:59:16.188Z,19.08
2022-10-14T09:03:26.853Z,20.50
2022-10-14T09:07:30.020Z,20.95
2022-10-14T09:11:37.491Z,20.17
2022-10-14T09:15:45.307Z,20.48
2022-10-14T09:19:54.182Z,20.43
2022-10-14T09:24:28.617Z,19.67
2022-10-14T09:28:54.677Z,23.70
2022-10-14T09:33:14.140Z,25.13
2022-10-14T09:37:36.824Z,23.98
2022-10-14T09:41:48.661Z,16.70
2022-10-14T09:46:07.416Z,15.30
2022-10-14T09:50:53.397Z,14.10
2022-10-14T10:00:03.832Z,13.95
2022-10-14T10:04:36.010Z,13.60
2022-10-14T10:08:41.415Z,13.38
2022-10-14T10:12:47.263Z,13.23
2022-10-14T10:16:53.694Z,12.15
2022-10-14T10:21:09.778Z,13.48
2022-10-14T10:25:29.302Z,13.07
2022-10-14T10:29:35.526Z,12.00
2022-10-14T10:33:47.876Z,12.07
2022-10-14T10:38:06.555Z,9.65
2022-10-14T10:42:23.686Z,8.05
2022-10-14T10:46:51.490Z,11.13
2022-10-14T11:02:03.284Z,11.27
2022-10-14T11:07:33.636Z,11.48
2022-10-14T11:12:13.019Z,9.90
2022-10-14T11:16:32.264Z,9.10
2022-10-14T11:20:46.736Z,10.27
2022-10-14T11:25:19.338Z,9.68
2022-10-14T11:38:59.808Z,8.40
2022-10-14T11:43:22.414Z,7.93
2022-10-14T11:47:28.412Z,8.90
2022-10-14T11:51:38.880Z,8.82
2022-10-14T11:55:49.787Z,8.35
2022-10-14T12:00:07.837Z,8.15
2022-10-14T12:04:27.446Z,6.45
2022-10-14T12:08:35.873Z,5.45
2022-10-14T12:12:47.066Z,5.47
2022-10-14T12:16:51.367Z,4.40
2022-10-14T12:21:01.709Z,4.97
2022-10-14T12:25:09.732Z,4.70
2022-10-14T12:29:20.224Z,5.05
2022-10-14T12:33:23.075Z,4.30
2022-10-14T12:42:04.988Z,4.90
2022-10-14T12:46:18.535Z,4.50
2022-10-14T12:50:34.081Z,4.43
2022-10-14T12:54:37.817Z,4.55
2022-10-14T12:58:44.946Z,4.53
2022-10-14T13:02:51.719Z,4.68
2022-10-14T13:07:41.018Z,4.85
2022-10-14T13:12:08.964Z,5.57
2022-10-14T13:16:13.084Z,6.10
2022-10-14T13:20:55.338Z,6.15
2022-10-14T13:24:57.919Z,6.45
2022-10-14T13:29:25.766Z,6.70
2022-10-14T13:33:37.725Z,7.00
2022-10-14T13:37:45.807Z,7.20
2022-10-14T13:41:49.327Z,6.70
2022-10-14T13:45:55.637Z,6.57
2022-10-14T13:49:58.892Z,6.13
2022-10-14T13:54:01.823Z,6.00
2022-10-14T13:58:14.212Z,5.70
2022-10-14T14:02:19.840Z,5.78
2022-10-14T14:06:25.624Z,5.47
2022-10-14T14:10:28.049Z,5.90
2022-10-14T14:14:38.513Z,5.35
2022-10-14T14:18:56.077Z,5.55
2022-10-14T14:23:04.592Z,5.50
2022-10-14T14:27:05.072Z,5.53
2022-10-14T14:31:05.255Z,5.97
2022-10-14T14:35:18.070Z,5.50
2022-10-14T14:39:28.449Z,5.55
2022-10-14T14:43:34.589Z,5.20
2022-10-14T14:47:37.143Z,5.30
2022-10-14T14:51:41.784Z,6.00
2022-10-14T14:55:49.715Z,5.97
2022-10-14T15:00:05.245Z,6.40
2022-10-14T15:04:12.980Z,6.40
2022-10-14T15:08:25.887Z,7.78
2022-10-14T15:12:34.311Z,8.38
2022-10-14T15:16:42.388Z,7.38
2022-10-14T15:20:44.761Z,7.57
2022-10-14T15:25:04.447Z,7.60
2022-10-14T15:33:39.847Z,7.72
2022-10-14T15:37:40.089Z,6.88
2022-10-14T15:41:43.477Z,7.32
2022-10-14T15:46:09.085Z,6.43
2022-10-14T15:50:18.212Z,8.40
2022-10-14T15:54:27.139Z,8.07
2022-10-14T15:58:27.260Z,9.80
2022-10-14T16:02:36.209Z,10.23
2022-10-14T16:06:36.441Z,11.90
2022-10-14T16:10:37.070Z,13.02
2022-10-14T16:14:37.203Z,14.30
2022-10-14T16:18:40.006Z,16.52
2022-10-14T16:22:40.240Z,17.90
2022-10-14T16:26:42.245Z,15.00
2022-10-14T16:30:48.790Z,19.70
2022-10-14T16:34:51.511Z,15.75
2022-10-14T16:38:52.091Z,14.95
2022-10-14T16:42:53.362Z,15.55
2022-10-14T16:47:06.888Z,15.32
2022-10-14T16:51:10.431Z,14.35
2022-10-14T16:55:11.774Z,17.48
2022-10-14T16:59:14.954Z,16.05
2022-10-14T17:03:15.370Z,14.55
2022-10-14T17:07:20.126Z,14.13
2022-10-14T17:11:20.790Z,14.15
2022-10-14T17:15:21.147Z,15.27
2022-10-14T17:19:23.990Z,14.10
2022-10-14T17:23:26.776Z,14.55
2022-10-14T17:27:26.976Z,14.90
2022-10-14T17:31:29.017Z,15.23
2022-10-14T17:35:29.233Z,15.05
2022-10-14T17:39:35.328Z,17.05
2022-10-14T17:43:38.310Z,14.82
2022-10-14T17:47:44.995Z,14.70
2022-10-14T17:51:45.490Z,14.38
2022-10-14T17:55:48.214Z,14.35
2022-10-14T17:59:48.314Z,13.23
2022-10-14T18:03:48.483Z,13.75
2022-10-14T18:07:48.623Z,13.10
2022-10-14T18:16:14.898Z,13.55
2022-10-14T18:20:15.302Z,13.20
2022-10-14T18:24:16.301Z,12.45
2022-10-14T18:28:20.886Z,13.15
2022-10-14T18:32:22.429Z,11.48
2022-10-14T18:36:29.154Z,11.52
2022-10-14T18:40:40.494Z,9.55
2022-10-14T18:44:45.172Z,9.57
2022-10-14T18:48:50.637Z,7.80
2022-10-14T18:52:51.348Z,6.50
2022-10-14T18:56:51.518Z,6.50
2022-10-14T19:00:56.119Z,4.50
2022-10-14T19:04:57.036Z,4.78
2022-10-14T19:08:57.547Z,5.32
2022-10-14T19:12:57.638Z,5.07
2022-10-14T19:17:00.296Z,4.82
2022-10-14T19:21:09.063Z,7.05
2022-10-14T19:25:10.945Z,7.65
2022-10-14T19:29:14.493Z,16.17
2022-10-14T19:33:17.351Z,9.82
2022-10-14T19:37:17.603Z,10.57
2022-10-14T19:41:18.794Z,9.17
2022-10-14T19:45:23.983Z,7.63
2022-10-14T19:49:31.391Z,7.97
2022-10-14T19:53:31.895Z,6.40
2022-10-14T19:57:32.037Z,12.73
2022-10-14T20:01:33.893Z,10.17
2022-10-14T20:05:37.393Z,6.80
2022-10-14T20:09:40.717Z,15.20
2022-10-14T20:13:41.317Z,6.23
2022-10-14T20:17:41.710Z,7.37
2022-10-14T20:21:46.062Z,6.80
2022-10-14T20:25:46.607Z,12.47
2022-10-14T20:29:46.871Z,10.80
2022-10-14T20:33:47.114Z,8.60
2022-10-14T20:37:49.848Z,6.60
2022-10-14T20:41:50.047Z,5.57
2022-10-14T20:45:50.202Z,6.13
2022-10-14T20:49:50.567Z,5.53
2022-10-14T20:54:01.718Z,4.43
2022-10-14T21:02:26.904Z,4.73
2022-10-14T21:06:29.573Z,4.43
2022-10-14T21:10:39.215Z,6.00
2022-10-14T21:14:39.439Z,5.67
2022-10-14T21:18:39.615Z,5.40
2022-10-14T21:22:39.687Z,4.80
2022-10-14T21:26:42.600Z,5.77
2022-10-14T21:30:44.380Z,6.10
2022-10-14T21:34:44.558Z,5.70
2022-10-14T21:38:45.085Z,6.23
2022-10-14T21:42:47.942Z,6.27
2022-10-14T21:46:48.102Z,6.77
2022-10-14T21:50:48.345Z,7.50
2022-10-14T21:54:48.438Z,7.13
2022-10-14T21:58:51.432Z,6.30
2022-10-14T22:02:55.614Z,7.03
2022-10-14T22:06:55.992Z,7.70
2022-10-14T22:10:57.426Z,7.43
2022-10-14T22:15:03.286Z,8.07
2022-10-14T22:19:08.570Z,11.73
2022-10-14T22:23:08.681Z,9.23
2022-10-14T22:27:09.434Z,8.50
2022-10-14T22:31:15.682Z,8.70
2022-10-14T22:35:15.801Z,8.97
2022-10-14T22:39:20.814Z,8.60
2022-10-14T22:43:20.975Z,9.47
2022-10-14T22:47:24.047Z,8.63
2022-10-14T22:55:45.517Z,9.27
2022-10-14T22:59:45.742Z,10.20
2022-10-14T23:03:48.507Z,12.67
2022-10-14T23:07:49.213Z,10.53
2022-10-14T23:11:49.342Z,10.00
2022-10-14T23:15:58.759Z,10.40
2022-10-14T23:20:01.496Z,10.33
2022-10-14T23:24:05.689Z,10.27
2022-10-14T23:28:05.835Z,9.90
2022-10-14T23:32:06.144Z,10.63
2022-10-14T23:36:12.102Z,9.80
2022-10-14T23:40:14.420Z,9.63
2022-10-14T23:44:14.780Z,11.57
2022-10-14T23:48:14.909Z,10.13
2022-10-14T23:52:17.694Z,10.17
2022-10-14T23:56:17.853Z,10.05
